createdAt,value
2018-04-15T00:00:35.845Z,815.42
2018-04-15T00:01:35.857Z,815.41
2018-04-15T00:02:35.868Z,815.43
2018-04-15T00:03:35.879Z,815.47
2018-04-15T00:04:35.887Z,815.48
2018-04-15T00:05:35.895Z,815.50
2018-04-15T00:06:35.908Z,815.45
2018-04-15T00:07:35.918Z,815.44
2018-04-15T00:08:35.929Z,815.45
2018-04-15T00:09:35.935Z,815.43
2018-04-15T00:10:35.950Z,815.47
2018-04-15T00:11:35.960Z,815.48
2018-04-15T00:12:35.972Z,815.49
2018-04-15T00:13:35.979Z,815.49
2018-04-15T00:14:35.991Z,815.51
2018-04-15T00:15:36.003Z,815.48
2018-04-15T00:16:36.008Z,815.48
2018-04-15T00:17:36.018Z,815.48
2018-04-15T00:18:36.029Z,815.47
2018-04-15T00:19:36.039Z,815.51
2018-04-15T00:20:36.049Z,815.48
2018-04-15T00:21:36.060Z,815.46
2018-04-15T00:22:36.070Z,815.46
2018-04-15T00:23:36.109Z,815.42
2018-04-15T00:24:36.091Z,815.41
2018-04-15T00:25:36.103Z,815.41
2018-04-15T00:26:36.112Z,815.43
2018-04-15T00:27:36.122Z,815.43
2018-04-15T00:28:36.136Z,815.42
2018-04-15T00:29:36.146Z,815.42
2018-04-15T00:30:36.155Z,815.43
2018-04-15T00:31:36.164Z,815.42
2018-04-15T00:32:36.174Z,815.41
2018-04-15T00:33:36.184Z,815.47
2018-04-15T00:34:36.194Z,815.45
2018-04-15T00:35:36.207Z,815.42
2018-04-15T00:36:36.215Z,815.44
2018-04-15T00:37:36.224Z,815.45
2018-04-15T00:38:36.237Z,815.46
2018-04-15T00:39:36.248Z,815.47
2018-04-15T00:40:36.256Z,815.48
2018-04-15T00:41:36.264Z,815.49
2018-04-15T00:42:36.274Z,815.46
2018-04-15T00:43:36.285Z,815.43
2018-04-15T00:44:36.294Z,815.44
2018-04-15T00:45:36.305Z,815.46
2018-04-15T00:46:36.314Z,815.47
2018-04-15T00:47:36.329Z,815.49
2018-04-15T00:48:36.334Z,815.48
2018-04-15T00:49:36.350Z,815.43
2018-04-15T00:50:36.353Z,815.46
2018-04-15T00:51:36.365Z,815.45
2018-04-15T00:52:36.373Z,815.42
2018-04-15T00:53:36.385Z,815.39
2018-04-15T00:54:36.394Z,815.44
2018-04-15T00:55:36.406Z,815.39
2018-04-15T00:56:36.415Z,815.40
2018-04-15T00:57:36.424Z,815.42
2018-04-15T00:58:36.436Z,815.40
2018-04-15T00:59:36.446Z,815.38
2018-04-15T01:00:36.457Z,815.41
2018-04-15T01:01:36.466Z,815.40
2018-04-15T01:02:36.476Z,815.46
2018-04-15T01:03:36.486Z,815.42
2018-04-15T01:04:36.498Z,815.43
2018-04-15T01:05:36.510Z,815.45
2018-04-15T01:06:36.528Z,815.40
2018-04-15T01:07:36.527Z,815.35
2018-04-15T01:08:36.540Z,815.36
2018-04-15T01:09:36.546Z,815.37
2018-04-15T01:10:36.556Z,815.35
2018-04-15T01:11:36.567Z,815.35
2018-04-15T01:12:36.577Z,815.31
2018-04-15T01:13:36.587Z,815.37
2018-04-15T01:14:36.597Z,815.31
2018-04-15T01:15:36.607Z,815.32
2018-04-15T01:16:36.620Z,815.34
2018-04-15T01:17:36.627Z,815.31
2018-04-15T01:18:36.644Z,815.32
2018-04-15T01:19:36.647Z,815.34
2018-04-15T01:20:36.668Z,815.30
2018-04-15T01:21:36.667Z,815.31
2018-04-15T01:22:36.677Z,815.29
2018-04-15T01:23:36.687Z,815.31
2018-04-15T01:24:36.696Z,815.31
2018-04-15T01:25:36.708Z,815.32
2018-04-15T01:26:36.714Z,815.30
2018-04-15T01:27:36.728Z,815.32
2018-04-15T01:28:36.735Z,815.30
2018-04-15T01:29:36.746Z,815.32
2018-04-15T01:30:36.755Z,815.29
2018-04-15T01:31:36.766Z,815.32
2018-04-15T01:32:36.775Z,815.26
2018-04-15T01:33:36.785Z,815.26
2018-04-15T01:34:36.796Z,815.22
2018-04-15T01:35:36.808Z,815.23
2018-04-15T01:36:36.814Z,815.24
2018-04-15T01:37:36.829Z,815.22
2018-04-15T01:38:36.838Z,815.21
2018-04-15T01:39:36.848Z,815.21
2018-04-15T01:40:36.856Z,815.19
2018-04-15T01:41:36.867Z,815.19
2018-04-15T01:42:36.877Z,815.17
2018-04-15T01:43:36.888Z,815.15
2018-04-15T01:44:36.896Z,815.13
2018-04-15T01:45:36.906Z,815.04
2018-04-15T01:46:36.915Z,815.07
2018-04-15T01:47:36.926Z,815.08
2018-04-15T01:48:36.938Z,815.10
2018-04-15T01:49:36.947Z,815.10
2018-04-15T01:50:36.957Z,815.06
2018-04-15T01:51:36.967Z,815.09
2018-04-15T01:52:36.976Z,815.08
2018-04-15T01:53:36.985Z,815.03
2018-04-15T01:54:36.998Z,815.07
2018-04-15T01:55:37.007Z,815.04
2018-04-15T01:56:37.020Z,815.06
2018-04-15T01:57:37.026Z,815.05
2018-04-15T01:58:37.041Z,815.05
2018-04-15T01:59:37.046Z,815.10
2018-04-15T02:00:37.054Z,815.09
2018-04-15T02:01:37.065Z,815.11
2018-04-15T02:02:37.077Z,815.11
2018-04-15T02:03:37.088Z,815.10
2018-04-15T02:04:37.096Z,815.12
2018-04-15T02:05:37.106Z,815.08
2018-04-15T02:06:37.120Z,815.07
2018-04-15T02:07:37.127Z,815.08
2018-04-15T02:08:37.136Z,815.05
2018-04-15T02:09:37.145Z,815.09
2018-04-15T02:10:37.155Z,815.05
2018-04-15T02:11:37.165Z,815.05
2018-04-15T02:12:37.176Z,815.02
2018-04-15T02:13:37.186Z,815.03
2018-04-15T02:14:37.197Z,814.95
2018-04-15T02:15:37.207Z,814.98
2018-04-15T02:16:37.218Z,814.99
2018-04-15T02:17:37.225Z,814.98
2018-04-15T02:18:37.235Z,814.98
2018-04-15T02:19:37.246Z,814.99
2018-04-15T02:20:37.255Z,814.99
2018-04-15T02:21:37.265Z,814.98
2018-04-15T02:22:37.275Z,814.97
2018-04-15T02:23:37.287Z,814.96
2018-04-15T02:24:37.295Z,814.98
2018-04-15T02:25:37.306Z,814.94
2018-04-15T02:26:37.312Z,814.94
2018-04-15T02:27:37.325Z,814.95
2018-04-15T02:28:37.334Z,814.96
2018-04-15T02:29:37.345Z,814.93
2018-04-15T02:30:37.356Z,814.91
2018-04-15T02:31:37.364Z,814.90
2018-04-15T02:32:37.376Z,814.91
2018-04-15T02:33:37.384Z,814.88
2018-04-15T02:34:37.393Z,814.86
2018-04-15T02:35:37.406Z,814.87
2018-04-15T02:36:37.414Z,814.85
2018-04-15T02:37:37.422Z,814.89
2018-04-15T02:38:37.432Z,814.88
2018-04-15T02:39:37.443Z,814.89
2018-04-15T02:40:37.451Z,814.84
2018-04-15T02:41:37.460Z,814.83
2018-04-15T02:42:37.470Z,814.78
2018-04-15T02:43:37.480Z,814.77
2018-04-15T02:44:37.492Z,814.74
2018-04-15T02:45:37.499Z,814.71
2018-04-15T02:46:37.510Z,814.68
2018-04-15T02:47:37.521Z,814.66
2018-04-15T02:48:37.532Z,814.65
2018-04-15T02:49:37.560Z,814.61
2018-04-15T02:50:37.550Z,814.59
2018-04-15T02:51:37.565Z,814.52
2018-04-15T02:52:37.570Z,814.50
2018-04-15T02:53:37.578Z,814.47
2018-04-15T02:54:37.591Z,814.44
2018-04-15T02:55:37.598Z,814.41
2018-04-15T02:56:37.609Z,814.37
2018-04-15T02:57:37.635Z,814.37
2018-04-15T02:58:37.627Z,814.35
2018-04-15T02:59:37.637Z,814.42
2018-04-15T03:00:37.646Z,814.35
2018-04-15T03:01:37.656Z,814.37
2018-04-15T03:02:37.672Z,814.33
2018-04-15T03:03:37.675Z,814.34
2018-04-15T03:04:37.691Z,814.39
2018-04-15T03:05:37.696Z,814.37
2018-04-15T03:06:37.705Z,814.34
2018-04-15T03:07:37.715Z,814.32
2018-04-15T03:08:37.738Z,814.31
2018-04-15T03:09:37.739Z,814.31
2018-04-15T03:10:37.744Z,814.24
2018-04-15T03:11:37.755Z,814.26
2018-04-15T03:12:37.763Z,814.24
2018-04-15T03:13:37.775Z,814.24
2018-04-15T03:14:37.783Z,814.23
2018-04-15T03:15:37.793Z,814.16
2018-04-15T03:16:37.801Z,814.17
2018-04-15T03:17:37.811Z,814.18
2018-04-15T03:18:37.821Z,814.17
2018-04-15T03:19:37.833Z,814.13
2018-04-15T03:20:37.839Z,814.18
2018-04-15T03:21:37.850Z,814.21
2018-04-15T03:22:37.860Z,814.22
2018-04-15T03:23:37.870Z,814.22
2018-04-15T03:24:37.879Z,814.22
2018-04-15T03:25:37.888Z,814.22
2018-04-15T03:26:37.900Z,814.21
2018-04-15T03:27:37.909Z,814.19
2018-04-15T03:28:37.917Z,814.15
2018-04-15T03:29:37.928Z,814.18
2018-04-15T03:30:37.938Z,814.18
2018-04-15T03:31:37.950Z,814.20
2018-04-15T03:32:37.956Z,814.19
2018-04-15T03:33:37.967Z,814.16
2018-04-15T03:34:37.975Z,814.16
2018-04-15T03:35:37.989Z,814.16
2018-04-15T03:36:37.996Z,814.16
2018-04-15T03:37:38.005Z,814.12
2018-04-15T03:38:38.015Z,814.13
2018-04-15T03:39:38.026Z,814.12
2018-04-15T03:40:38.034Z,814.13
2018-04-15T03:41:38.047Z,814.15
2018-04-15T03:42:38.060Z,814.10
2018-04-15T03:43:38.063Z,814.11
2018-04-15T03:44:38.075Z,814.14
2018-04-15T03:45:38.082Z,814.14
2018-04-15T03:46:38.094Z,814.13
2018-04-15T03:47:38.105Z,814.16
2018-04-15T03:48:38.115Z,814.14
2018-04-15T03:49:38.123Z,814.12
2018-04-15T03:50:38.132Z,814.15
2018-04-15T03:51:38.142Z,814.16
2018-04-15T03:52:38.153Z,814.14
2018-04-15T03:53:38.161Z,814.15
2018-04-15T03:54:38.173Z,814.16
2018-04-15T03:55:38.180Z,814.13
2018-04-15T03:56:38.191Z,814.16
2018-04-15T03:57:38.200Z,814.12
2018-04-15T03:58:38.210Z,814.11
2018-04-15T03:59:38.223Z,814.07
2018-04-15T04:00:38.230Z,814.06
2018-04-15T04:01:38.240Z,814.06
2018-04-15T04:02:38.250Z,814.05
2018-04-15T04:03:38.264Z,814.00
2018-04-15T04:04:38.271Z,813.99
2018-04-15T04:05:38.280Z,814.00
2018-04-15T04:06:38.288Z,813.99
2018-04-15T04:07:38.301Z,813.97
2018-04-15T04:08:38.307Z,813.90
2018-04-15T04:09:38.319Z,813.91
2018-04-15T04:10:38.329Z,813.84
2018-04-15T04:11:38.339Z,813.78
2018-04-15T04:12:38.348Z,813.75
2018-04-15T04:13:38.359Z,813.73
2018-04-15T04:14:38.367Z,813.76
2018-04-15T04:15:38.378Z,813.74
2018-04-15T04:16:38.388Z,813.76
2018-04-15T04:17:38.399Z,813.73
2018-04-15T04:18:38.408Z,813.81
2018-04-15T04:19:38.419Z,813.82
2018-04-15T04:20:38.431Z,813.78
2018-04-15T04:21:38.440Z,813.82
2018-04-15T04:22:38.449Z,813.77
2018-04-15T04:23:38.459Z,813.78
2018-04-15T04:24:38.468Z,813.74
2018-04-15T04:25:38.478Z,813.76
2018-04-15T04:26:38.488Z,813.69
2018-04-15T04:27:38.498Z,813.63
2018-04-15T04:28:38.508Z,813.58
2018-04-15T04:29:38.520Z,813.50
2018-04-15T04:30:38.530Z,813.49
2018-04-15T04:31:38.540Z,813.49
2018-04-15T04:32:38.551Z,813.47
2018-04-15T04:33:38.557Z,813.53
2018-04-15T04:34:38.569Z,813.47
2018-04-15T04:35:38.580Z,813.55
2018-04-15T04:36:38.588Z,813.56
2018-04-15T04:37:38.598Z,813.51
2018-04-15T04:38:38.607Z,813.52
2018-04-15T04:39:38.620Z,813.51
2018-04-15T04:40:38.632Z,813.49
2018-04-15T04:41:38.637Z,813.48
2018-04-15T04:42:38.647Z,813.46
2018-04-15T04:43:38.658Z,813.46
2018-04-15T04:44:38.664Z,813.49
2018-04-15T04:45:38.675Z,813.44
2018-04-15T04:46:38.686Z,813.44
2018-04-15T04:47:38.697Z,813.45
2018-04-15T04:48:38.703Z,813.45
2018-04-15T04:49:38.714Z,813.45
2018-04-15T04:50:38.726Z,813.43
2018-04-15T04:51:38.732Z,813.44
2018-04-15T04:52:38.743Z,813.39
2018-04-15T04:53:38.754Z,813.41
2018-04-15T04:54:38.763Z,813.40
2018-04-15T04:55:38.772Z,813.37
2018-04-15T04:56:38.783Z,813.37
2018-04-15T04:57:38.793Z,813.36
2018-04-15T04:58:38.802Z,813.35
2018-04-15T04:59:38.811Z,813.36
2018-04-15T05:00:38.820Z,813.37
2018-04-15T05:01:38.831Z,813.35
2018-04-15T05:02:38.845Z,813.36
2018-04-15T05:03:38.851Z,813.35
2018-04-15T05:04:38.861Z,813.32
2018-04-15T05:05:38.871Z,813.35
2018-04-15T05:06:38.879Z,813.33
2018-04-15T05:07:38.940Z,813.30
2018-04-15T05:08:38.897Z,813.32
2018-04-15T05:09:38.907Z,813.30
2018-04-15T05:10:38.917Z,813.30
2018-04-15T05:11:38.929Z,813.29
2018-04-15T05:12:38.935Z,813.24
2018-04-15T05:13:38.946Z,813.27
2018-04-15T05:14:38.955Z,813.26
2018-04-15T05:15:38.966Z,813.25
2018-04-15T05:16:38.976Z,813.26
2018-04-15T05:17:38.983Z,813.25
2018-04-15T05:18:38.995Z,813.25
2018-04-15T05:19:39.005Z,813.21
2018-04-15T05:20:39.013Z,813.21
2018-04-15T05:21:39.026Z,813.20
2018-04-15T05:22:39.036Z,813.19
2018-04-15T05:23:39.044Z,813.19
2018-04-15T05:24:39.053Z,813.19
2018-04-15T05:25:39.066Z,813.21
2018-04-15T05:26:39.073Z,813.20
2018-04-15T05:27:39.083Z,813.21
2018-04-15T05:28:39.093Z,813.21
2018-04-15T05:29:39.105Z,813.20
2018-04-15T05:30:39.113Z,813.24
2018-04-15T05:31:39.123Z,813.25
2018-04-15T05:32:39.136Z,813.25
2018-04-15T05:33:39.146Z,813.26
2018-04-15T05:34:39.159Z,813.24
2018-04-15T05:35:39.160Z,813.30
2018-04-15T05:36:39.172Z,813.28
2018-04-15T05:37:39.231Z,813.25
2018-04-15T05:38:39.192Z,813.25
2018-04-15T05:39:39.203Z,813.26
2018-04-15T05:40:39.213Z,813.23
2018-04-15T05:41:39.221Z,813.22
2018-04-15T05:42:39.237Z,813.23
2018-04-15T05:43:39.242Z,813.25
2018-04-15T05:44:39.249Z,813.23
2018-04-15T05:45:39.259Z,813.18
2018-04-15T05:46:39.271Z,813.15
2018-04-15T05:47:39.311Z,813.15
2018-04-15T05:48:39.298Z,813.18
2018-04-15T05:49:39.298Z,813.20
2018-04-15T05:50:39.307Z,813.22
2018-04-15T05:51:39.317Z,813.18
2018-04-15T05:52:39.327Z,813.19
2018-04-15T05:53:39.336Z,813.18
2018-04-15T05:54:39.348Z,813.19
2018-04-15T05:55:39.360Z,813.19
2018-04-15T05:56:39.367Z,813.21
2018-04-15T05:57:39.376Z,813.19
2018-04-15T05:58:39.387Z,813.18
2018-04-15T05:59:39.397Z,813.15
2018-04-15T06:00:39.410Z,813.16
2018-04-15T06:01:39.417Z,813.11
2018-04-15T06:02:39.426Z,813.13
2018-04-15T06:03:39.438Z,813.10
2018-04-15T06:04:39.446Z,813.05
2018-04-15T06:05:39.457Z,813.02
2018-04-15T06:06:39.465Z,812.99
2018-04-15T06:07:39.476Z,812.97
2018-04-15T06:08:39.491Z,812.96
2018-04-15T06:09:39.496Z,812.91
2018-04-15T06:10:39.508Z,812.94
2018-04-15T06:11:39.518Z,812.91
2018-04-15T06:12:39.537Z,812.91
2018-04-15T06:13:39.540Z,812.94
2018-04-15T06:14:39.547Z,812.85
2018-04-15T06:15:39.556Z,812.89
2018-04-15T06:16:39.568Z,812.90
2018-04-15T06:17:39.577Z,812.90
2018-04-15T06:18:39.595Z,812.88
2018-04-15T06:19:39.600Z,812.87
2018-04-15T06:20:39.609Z,812.91
2018-04-15T06:21:39.617Z,812.88
2018-04-15T06:22:39.629Z,812.86
2018-04-15T06:23:39.643Z,812.85
2018-04-15T06:24:39.692Z,812.82
2018-04-15T06:25:39.660Z,812.85
2018-04-15T06:26:39.669Z,812.84
2018-04-15T06:27:39.682Z,812.82
2018-04-15T06:28:39.689Z,812.87
2018-04-15T06:29:39.704Z,812.84
2018-04-15T06:30:39.710Z,812.91
2018-04-15T06:31:39.721Z,812.86
2018-04-15T06:32:39.731Z,812.85
2018-04-15T06:33:39.740Z,812.82
2018-04-15T06:34:39.751Z,812.81
2018-04-15T06:35:39.762Z,812.80
2018-04-15T06:36:39.787Z,812.74
2018-04-15T06:37:39.782Z,812.75
2018-04-15T06:38:39.792Z,812.74
2018-04-15T06:39:39.808Z,812.74
2018-04-15T06:40:39.816Z,812.74
2018-04-15T06:41:39.823Z,812.74
2018-04-15T06:42:39.836Z,812.79
2018-04-15T06:43:39.843Z,812.76
2018-04-15T06:44:39.858Z,812.78
2018-04-15T06:45:39.862Z,812.76
2018-04-15T06:46:39.876Z,812.78
2018-04-15T06:47:39.887Z,812.75
2018-04-15T06:48:39.898Z,812.75
2018-04-15T06:49:39.907Z,812.71
2018-04-15T06:50:39.918Z,812.71
2018-04-15T06:51:39.926Z,812.65
2018-04-15T06:52:39.938Z,812.70
2018-04-15T06:53:39.950Z,812.66
2018-04-15T06:54:39.963Z,812.65
2018-04-15T06:55:39.971Z,812.69
2018-04-15T06:56:39.979Z,812.66
2018-04-15T06:57:39.990Z,812.70
2018-04-15T06:58:40.001Z,812.68
2018-04-15T06:59:40.018Z,812.69
2018-04-15T07:00:40.024Z,812.68
2018-04-15T07:01:40.032Z,812.72
2018-04-15T07:02:40.045Z,812.68
2018-04-15T07:03:40.055Z,812.70
2018-04-15T07:04:40.063Z,812.72
2018-04-15T07:05:40.076Z,812.72
2018-04-15T07:06:40.084Z,812.71
2018-04-15T07:07:40.098Z,812.71
2018-04-15T07:08:40.108Z,812.66
2018-04-15T07:09:40.178Z,812.61
2018-04-15T07:10:40.129Z,812.60
2018-04-15T07:11:40.139Z,812.59
2018-04-15T07:12:40.149Z,812.61
2018-04-15T07:13:40.164Z,812.62
2018-04-15T07:14:40.172Z,812.64
2018-04-15T07:15:40.181Z,812.64
2018-04-15T07:16:40.194Z,812.61
2018-04-15T07:17:40.207Z,812.60
2018-04-15T07:18:40.214Z,812.59
2018-04-15T07:19:40.225Z,812.58
2018-04-15T07:20:40.236Z,812.52
2018-04-15T07:21:40.272Z,812.56
2018-04-15T07:22:40.258Z,812.56
2018-04-15T07:23:40.273Z,812.57
2018-04-15T07:24:40.285Z,812.56
2018-04-15T07:25:40.545Z,812.55
2018-04-15T07:26:40.314Z,812.57
2018-04-15T07:27:40.315Z,812.55
2018-04-15T07:28:40.325Z,812.54
2018-04-15T07:29:40.337Z,812.58
2018-04-15T07:30:40.348Z,812.57
2018-04-15T07:31:40.370Z,812.59
2018-04-15T07:32:40.369Z,812.58
2018-04-15T07:33:40.406Z,812.56
2018-04-15T07:34:40.392Z,812.54
2018-04-15T07:35:40.402Z,812.56
2018-04-15T07:36:40.440Z,812.57
2018-04-15T07:37:40.427Z,812.54
2018-04-15T07:38:40.437Z,812.55
2018-04-15T07:39:40.450Z,812.57
2018-04-15T07:40:40.459Z,812.55
2018-04-15T07:41:40.471Z,812.58
2018-04-15T07:42:40.482Z,812.55
2018-04-15T07:43:40.496Z,812.56
2018-04-15T07:44:40.506Z,812.53
2018-04-15T07:45:40.514Z,812.52
2018-04-15T07:46:40.526Z,812.54
2018-04-15T07:47:40.543Z,812.51
2018-04-15T07:48:40.548Z,812.55
2018-04-15T07:49:40.562Z,812.52
2018-04-15T07:50:40.572Z,812.53
2018-04-15T07:51:40.584Z,812.57
2018-04-15T07:52:40.592Z,812.53
2018-04-15T07:53:40.605Z,812.56
2018-04-15T07:54:40.617Z,812.51
2018-04-15T07:55:40.630Z,812.51
2018-04-15T07:56:40.639Z,812.50
2018-04-15T07:57:40.650Z,812.49
2018-04-15T07:58:40.661Z,812.51
2018-04-15T07:59:40.674Z,812.47
2018-04-15T08:00:40.685Z,812.51
2018-04-15T08:01:40.695Z,812.50
2018-04-15T08:02:40.706Z,812.49
2018-04-15T08:03:40.718Z,812.57
2018-04-15T08:04:40.732Z,812.54
2018-04-15T08:05:40.741Z,812.53
2018-04-15T08:06:40.752Z,812.54
2018-04-15T08:07:40.796Z,812.55
2018-04-15T08:08:40.776Z,812.54
2018-04-15T08:09:40.786Z,812.57
2018-04-15T08:10:40.796Z,812.56
2018-04-15T08:11:40.808Z,812.58
2018-04-15T08:12:40.821Z,812.59
2018-04-15T08:13:40.836Z,812.56
2018-04-15T08:14:40.843Z,812.59
2018-04-15T08:15:40.856Z,812.59
2018-04-15T08:16:40.865Z,812.55
2018-04-15T08:17:40.874Z,812.55
2018-04-15T08:18:40.892Z,812.55
2018-04-15T08:19:40.902Z,812.56
2018-04-15T08:20:40.911Z,812.58
2018-04-15T08:21:40.923Z,812.54
2018-04-15T08:22:40.935Z,812.55
2018-04-15T08:23:40.947Z,812.56
2018-04-15T08:24:40.956Z,812.58
2018-04-15T08:25:40.968Z,812.61
2018-04-15T08:26:40.982Z,812.57
2018-04-15T08:27:40.991Z,812.57
2018-04-15T08:28:41.002Z,812.56
2018-04-15T08:29:41.014Z,812.58
2018-04-15T08:30:41.030Z,812.55
2018-04-15T08:31:41.039Z,812.56
2018-04-15T08:32:41.051Z,812.55
2018-04-15T08:33:41.063Z,812.59
2018-04-15T08:34:41.075Z,812.60
2018-04-15T08:35:41.090Z,812.56
2018-04-15T08:36:41.096Z,812.57
2018-04-15T08:37:41.111Z,812.55
2018-04-15T08:38:41.119Z,812.52
2018-04-15T08:39:41.131Z,812.56
2018-04-15T08:40:41.141Z,812.49
2018-04-15T08:41:41.155Z,812.51
2018-04-15T08:42:41.164Z,812.48
2018-04-15T08:43:41.177Z,812.50
2018-04-15T08:44:41.189Z,812.46
2018-04-15T08:45:41.201Z,812.47
2018-04-15T08:46:41.213Z,812.49
2018-04-15T08:47:41.225Z,812.44
2018-04-15T08:48:41.239Z,812.45
2018-04-15T08:49:41.250Z,812.42
2018-04-15T08:50:41.261Z,812.41
2018-04-15T08:51:41.273Z,812.41
2018-04-15T08:52:41.284Z,812.42
2018-04-15T08:53:41.310Z,812.44
2018-04-15T08:54:41.307Z,812.46
2018-04-15T08:55:41.322Z,812.47
2018-04-15T08:56:41.334Z,812.47
2018-04-15T08:57:41.346Z,812.48
2018-04-15T08:58:41.358Z,812.44
2018-04-15T08:59:41.367Z,812.46
2018-04-15T09:00:41.422Z,812.44
2018-04-15T09:01:41.401Z,812.43
2018-04-15T09:02:41.404Z,812.43
2018-04-15T09:03:41.423Z,812.40
2018-04-15T09:04:41.426Z,812.41
2018-04-15T09:05:41.439Z,812.40
2018-04-15T09:06:41.452Z,812.36
2018-04-15T09:07:41.466Z,812.41
2018-04-15T09:08:41.475Z,812.41
2018-04-15T09:09:41.544Z,812.40
2018-04-15T09:10:41.501Z,812.40
2018-04-15T09:11:41.513Z,812.41
2018-04-15T09:12:41.530Z,812.43
2018-04-15T09:13:41.538Z,812.42
2018-04-15T09:14:41.553Z,812.45
2018-04-15T09:15:41.564Z,812.44
2018-04-15T09:16:41.579Z,812.41
2018-04-15T09:17:41.590Z,812.41
2018-04-15T09:18:41.601Z,812.42
2018-04-15T09:19:41.614Z,812.39
2018-04-15T09:20:41.626Z,812.41
2018-04-15T09:21:41.637Z,812.40
2018-04-15T09:22:41.650Z,812.37
2018-04-15T09:23:41.664Z,812.38
2018-04-15T09:24:41.675Z,812.38
2018-04-15T09:25:41.689Z,812.38
2018-04-15T09:26:41.703Z,812.35
2018-04-15T09:27:41.716Z,812.32
2018-04-15T09:28:41.726Z,812.39
2018-04-15T09:29:41.740Z,812.31
2018-04-15T09:30:41.755Z,812.31
2018-04-15T09:31:41.769Z,812.37
2018-04-15T09:32:41.779Z,812.30
2018-04-15T09:33:41.792Z,812.34
2018-04-15T09:34:41.808Z,812.33
2018-04-15T09:35:41.821Z,812.34
2018-04-15T09:36:41.832Z,812.33
2018-04-15T09:37:41.845Z,812.34
2018-04-15T09:38:41.860Z,812.33
2018-04-15T09:39:41.874Z,812.36
2018-04-15T09:40:41.885Z,812.32
2018-04-15T09:41:41.901Z,812.37
2018-04-15T09:42:41.912Z,812.35
2018-04-15T09:43:41.928Z,812.35
2018-04-15T09:44:41.941Z,812.30
2018-04-15T09:45:41.953Z,812.31
2018-04-15T09:46:41.964Z,812.31
2018-04-15T09:47:41.984Z,812.33
2018-04-15T09:48:41.993Z,812.36
2018-04-15T09:49:42.010Z,812.34
2018-04-15T09:50:42.020Z,812.33
2018-04-15T09:51:42.036Z,812.34
2018-04-15T09:52:42.048Z,812.37
2018-04-15T09:53:42.059Z,812.34
2018-04-15T09:54:42.075Z,812.34
2018-04-15T09:55:42.090Z,812.36
2018-04-15T09:56:42.105Z,812.36
2018-04-15T09:57:42.119Z,812.39
2018-04-15T09:58:42.131Z,812.38
2018-04-15T09:59:42.144Z,812.39
2018-04-15T10:00:42.161Z,812.43
2018-04-15T10:01:42.172Z,812.43
2018-04-15T10:02:42.188Z,812.43
2018-04-15T10:03:42.203Z,812.40
2018-04-15T10:04:42.221Z,812.43
2018-04-15T10:05:42.226Z,812.42
2018-04-15T10:06:42.244Z,812.45
2018-04-15T10:07:42.258Z,812.42
2018-04-15T10:08:42.271Z,812.45
2018-04-15T10:09:42.284Z,812.49
2018-04-15T10:10:42.298Z,812.51
2018-04-15T10:11:42.310Z,812.50
2018-04-15T10:12:42.327Z,812.49
2018-04-15T10:13:42.339Z,812.52
2018-04-15T10:14:42.354Z,812.55
2018-04-15T10:15:42.366Z,812.58
2018-04-15T10:16:42.383Z,812.56
2018-04-15T10:17:42.393Z,812.55
2018-04-15T10:18:42.407Z,812.57
2018-04-15T10:19:42.422Z,812.56
2018-04-15T10:20:42.435Z,812.58
2018-04-15T10:21:42.451Z,812.60
2018-04-15T10:22:42.464Z,812.60
2018-04-15T10:23:42.480Z,812.60
2018-04-15T10:24:42.497Z,812.61
2018-04-15T10:25:42.508Z,812.61
2018-04-15T10:26:42.525Z,812.60
2018-04-15T10:27:42.537Z,812.65
2018-04-15T10:28:42.555Z,812.61
2018-04-15T10:29:42.563Z,812.61
2018-04-15T10:30:42.578Z,812.56
2018-04-15T10:31:42.593Z,812.55
2018-04-15T10:32:42.642Z,812.65
2018-04-15T10:33:42.623Z,812.64
2018-04-15T10:34:42.637Z,812.62
2018-04-15T10:35:42.651Z,812.62
2018-04-15T10:36:42.667Z,812.63
2018-04-15T10:37:42.680Z,812.63
2018-04-15T10:38:42.756Z,812.69
2018-04-15T10:39:42.713Z,812.61
2018-04-15T10:40:42.723Z,812.63
2018-04-15T10:41:42.737Z,812.62
2018-04-15T10:42:42.753Z,812.62
2018-04-15T10:43:42.777Z,812.57
2018-04-15T10:44:42.783Z,812.56
2018-04-15T10:45:42.799Z,812.56
2018-04-15T10:46:42.811Z,812.56
2018-04-15T10:47:42.827Z,812.58
2018-04-15T10:48:42.842Z,812.56
2018-04-15T10:49:42.859Z,812.56
2018-04-15T10:50:42.875Z,812.49
2018-04-15T10:51:42.886Z,812.46
2018-04-15T10:52:42.903Z,812.43
2018-04-15T10:53:42.917Z,812.51
2018-04-15T10:54:42.945Z,812.47
2018-04-15T10:55:42.948Z,812.47
2018-04-15T10:56:42.961Z,812.47
2018-04-15T10:57:42.975Z,812.48
2018-04-15T10:58:42.991Z,812.41
2018-04-15T10:59:43.005Z,812.42
2018-04-15T11:00:43.019Z,812.39
2018-04-15T11:01:43.034Z,812.37
2018-04-15T11:02:43.053Z,812.38
2018-04-15T11:03:43.065Z,812.40
2018-04-15T11:04:43.078Z,812.40
2018-04-15T11:05:43.093Z,812.36
2018-04-15T11:06:43.112Z,812.36
2018-04-15T11:07:43.123Z,812.37
2018-04-15T11:08:43.155Z,812.37
2018-04-15T11:09:43.150Z,812.35
2018-04-15T11:10:43.165Z,812.34
2018-04-15T11:11:43.183Z,812.35
2018-04-15T11:12:43.202Z,812.37
2018-04-15T11:13:43.208Z,812.35
2018-04-15T11:14:43.223Z,812.39
2018-04-15T11:15:43.241Z,812.34
2018-04-15T11:16:43.264Z,812.33
2018-04-15T11:17:43.266Z,812.35
2018-04-15T11:18:43.292Z,812.37
2018-04-15T11:19:43.296Z,812.37
2018-04-15T11:20:43.308Z,812.37
2018-04-15T11:21:43.325Z,812.33
2018-04-15T11:22:43.338Z,812.35
2018-04-15T11:23:43.354Z,812.34
2018-04-15T11:24:43.367Z,812.34
2018-04-15T11:25:43.379Z,812.29
2018-04-15T11:26:43.396Z,812.29
2018-04-15T11:27:43.408Z,812.28
2018-04-15T11:28:43.435Z,812.28
2018-04-15T11:29:43.437Z,812.28
2018-04-15T11:30:43.447Z,812.25
2018-04-15T11:31:43.467Z,812.24
2018-04-15T11:32:43.477Z,812.26
2018-04-15T11:33:43.490Z,812.29
2018-04-15T11:34:43.504Z,812.29
2018-04-15T11:35:43.521Z,812.30
2018-04-15T11:36:43.560Z,812.29
2018-04-15T11:37:43.545Z,812.26
2018-04-15T11:38:43.563Z,812.28
2018-04-15T11:39:43.574Z,812.24
2018-04-15T11:40:43.589Z,812.24
2018-04-15T11:41:43.602Z,812.24
2018-04-15T11:42:43.620Z,812.22
2018-04-15T11:43:43.635Z,812.18
2018-04-15T11:44:43.648Z,812.22
2018-04-15T11:45:43.663Z,812.21
2018-04-15T11:46:43.671Z,812.22
2018-04-15T11:47:43.688Z,812.25
2018-04-15T11:48:43.700Z,812.22
2018-04-15T11:49:43.713Z,812.16
2018-04-15T11:50:43.725Z,812.19
2018-04-15T11:51:43.745Z,812.12
2018-04-15T11:52:43.758Z,812.11
2018-04-15T11:53:43.767Z,812.04
2018-04-15T11:54:43.780Z,812.04
2018-04-15T11:55:43.794Z,811.98
2018-04-15T11:56:43.807Z,811.99
2018-04-15T11:57:43.821Z,811.95
2018-04-15T11:58:43.835Z,811.92
2018-04-15T11:59:43.850Z,811.91
2018-04-15T12:00:43.863Z,811.91
2018-04-15T12:01:43.876Z,811.92
2018-04-15T12:02:43.894Z,811.96
2018-04-15T12:03:43.950Z,811.91
2018-04-15T12:04:43.916Z,811.97
2018-04-15T12:05:43.929Z,812.00
2018-04-15T12:06:43.943Z,811.98
2018-04-15T12:07:43.958Z,811.96
2018-04-15T12:08:43.969Z,811.94
2018-04-15T12:09:43.983Z,811.94
2018-04-15T12:10:43.996Z,811.95
2018-04-15T12:11:44.011Z,812.00
2018-04-15T12:12:44.026Z,812.00
2018-04-15T12:13:44.041Z,812.00
2018-04-15T12:14:44.058Z,811.98
2018-04-15T12:15:44.065Z,811.97
2018-04-15T12:16:44.078Z,811.98
2018-04-15T12:17:44.093Z,811.96
2018-04-15T12:18:44.106Z,811.94
2018-04-15T12:19:44.119Z,811.93
2018-04-15T12:20:44.133Z,811.92
2018-04-15T12:21:44.149Z,811.94
2018-04-15T12:22:44.162Z,811.93
2018-04-15T12:23:44.176Z,811.89
2018-04-15T12:24:44.189Z,811.92
2018-04-15T12:25:44.201Z,811.92
2018-04-15T12:26:44.276Z,811.94
2018-04-15T12:27:44.230Z,811.93
2018-04-15T12:28:44.242Z,811.93